createdAt,value
2023-03-02T00:01:08.209Z,16.70
2023-03-02T00:03:36.086Z,15.80
2023-03-02T00:06:03.093Z,15.60
2023-03-02T00:08:30.019Z,13.45
2023-03-02T00:10:56.971Z,13.30
2023-03-02T00:13:23.586Z,13.27
2023-03-02T00:15:50.189Z,13.38
2023-03-02T00:18:16.687Z,14.77
2023-03-02T00:20:43.214Z,14.13
2023-03-02T00:23:09.701Z,14.57
2023-03-02T00:25:36.373Z,14.93
2023-03-02T00:28:03.481Z,15.27
2023-03-02T00:30:30.024Z,15.43
2023-03-02T00:32:58.523Z,13.95
2023-03-02T00:35:28.659Z,15.15
2023-03-02T00:37:55.315Z,14.90
2023-03-02T00:40:22.134Z,13.18
2023-03-02T00:42:48.648Z,13.27
2023-03-02T00:45:15.193Z,11.77
2023-03-02T00:47:42.504Z,12.52
2023-03-02T00:50:09.614Z,14.35
2023-03-02T00:52:36.060Z,14.25
2023-03-02T00:55:02.642Z,14.00
2023-03-02T00:57:29.163Z,13.35
2023-03-02T00:59:56.556Z,12.90
2023-03-02T01:02:44.196Z,13.77
2023-03-02T01:05:13.764Z,15.25
2023-03-02T01:07:40.490Z,13.60
2023-03-02T01:10:07.216Z,15.30
2023-03-02T01:12:33.788Z,14.50
2023-03-02T01:15:00.405Z,14.02
2023-03-02T01:17:27.408Z,15.50
2023-03-02T01:19:55.070Z,14.98
2023-03-02T01:22:22.644Z,14.63
2023-03-02T01:24:49.355Z,15.90
2023-03-02T01:27:15.901Z,14.50
2023-03-02T01:29:42.457Z,15.40
2023-03-02T01:32:08.980Z,16.88
2023-03-02T01:34:35.707Z,15.30
2023-03-02T01:37:02.321Z,15.45
2023-03-02T01:39:29.177Z,14.48
2023-03-02T01:41:55.746Z,14.35
2023-03-02T01:44:36.078Z,15.40
2023-03-02T01:47:04.073Z,14.55
2023-03-02T01:49:32.629Z,16.95
2023-03-02T01:52:00.369Z,14.88
2023-03-02T01:54:26.952Z,15.45
2023-03-02T01:56:58.821Z,17.15
2023-03-02T01:59:27.150Z,13.60
2023-03-02T02:01:56.736Z,14.50
2023-03-02T02:04:23.524Z,13.77
2023-03-02T02:06:52.759Z,13.63
2023-03-02T02:09:20.797Z,13.80
2023-03-02T02:11:47.638Z,13.02
2023-03-02T02:14:14.346Z,13.88
2023-03-02T02:16:41.494Z,14.32
2023-03-02T02:19:26.392Z,16.05
2023-03-02T02:21:52.881Z,14.43
2023-03-02T02:24:26.995Z,14.07
2023-03-02T02:26:54.569Z,15.35
2023-03-02T02:29:24.110Z,14.43
2023-03-02T02:31:53.437Z,14.48
2023-03-02T02:34:22.737Z,13.50
2023-03-02T02:36:53.913Z,14.70
2023-03-02T02:39:29.235Z,15.23
2023-03-02T02:41:58.451Z,14.10
2023-03-02T02:44:26.676Z,14.82
2023-03-02T02:46:53.753Z,16.05
2023-03-02T02:49:27.508Z,14.52
2023-03-02T02:51:54.019Z,14.90
2023-03-02T02:54:21.005Z,14.68
2023-03-02T02:56:49.197Z,14.93
2023-03-02T02:59:28.813Z,13.75
2023-03-02T03:01:57.758Z,15.77
2023-03-02T03:04:25.719Z,16.55
2023-03-02T03:06:52.339Z,16.23
2023-03-02T03:09:19.324Z,13.98
2023-03-02T03:11:49.571Z,15.20
2023-03-02T03:14:18.343Z,15.18
2023-03-02T03:16:47.990Z,14.88
2023-03-02T03:19:31.430Z,13.50
2023-03-02T03:22:01.338Z,15.68
2023-03-02T03:24:32.326Z,15.48
2023-03-02T03:26:59.747Z,14.30
2023-03-02T03:29:27.865Z,13.88
2023-03-02T03:31:59.531Z,14.02
2023-03-02T03:34:27.022Z,12.55
2023-03-02T03:36:53.997Z,15.95
2023-03-02T03:39:21.266Z,14.50
2023-03-02T03:41:49.248Z,13.38
2023-03-02T03:44:16.232Z,12.20
2023-03-02T03:46:44.297Z,13.20
2023-03-02T03:49:11.791Z,13.50
2023-03-02T03:51:38.397Z,13.40
2023-03-02T03:54:08.253Z,10.68
2023-03-02T03:56:41.852Z,14.23
2023-03-02T03:59:14.004Z,13.60
2023-03-02T04:01:51.147Z,14.27
2023-03-02T04:04:20.645Z,12.20
2023-03-02T04:06:47.999Z,12.90
2023-03-02T04:09:18.099Z,12.68
2023-03-02T04:11:45.414Z,13.13
2023-03-02T04:14:12.917Z,14.02
2023-03-02T04:16:40.389Z,13.57
2023-03-02T04:19:10.756Z,12.23
2023-03-02T04:21:40.771Z,14.45
2023-03-02T04:24:07.996Z,14.43
2023-03-02T04:26:35.678Z,12.73
2023-03-02T04:29:03.168Z,13.20
2023-03-02T04:31:33.024Z,12.82
2023-03-02T04:34:00.430Z,14.70
2023-03-02T04:36:27.081Z,12.15
2023-03-02T04:38:53.794Z,12.73
2023-03-02T04:41:20.308Z,13.25
2023-03-02T04:43:46.834Z,15.40
2023-03-02T04:46:17.898Z,16.00
2023-03-02T04:48:44.457Z,13.25
2023-03-02T04:51:17.137Z,15.00
2023-03-02T04:53:43.675Z,13.10
2023-03-02T04:56:10.267Z,13.00
2023-03-02T04:58:36.722Z,14.10
2023-03-02T05:01:03.594Z,12.10
2023-03-02T05:03:30.139Z,13.73
2023-03-02T05:05:57.761Z,12.88
2023-03-02T05:08:24.424Z,13.43
2023-03-02T05:10:51.101Z,13.20
2023-03-02T05:13:17.761Z,13.90
2023-03-02T05:15:44.302Z,14.07
2023-03-02T05:18:11.301Z,15.38
2023-03-02T05:20:38.203Z,16.45
2023-03-02T05:23:06.187Z,13.23
2023-03-02T05:25:33.887Z,13.55
2023-03-02T05:28:00.900Z,15.52
2023-03-02T05:30:27.708Z,14.48
2023-03-02T05:32:54.209Z,13.93
2023-03-02T05:35:21.374Z,16.27
2023-03-02T05:37:48.360Z,17.45
2023-03-02T05:40:16.374Z,15.30
2023-03-02T05:42:43.230Z,13.60
2023-03-02T05:45:12.958Z,13.30
2023-03-02T05:47:39.617Z,14.95
2023-03-02T05:50:06.447Z,15.98
2023-03-02T05:52:32.948Z,13.80
2023-03-02T05:54:59.624Z,13.88
2023-03-02T05:57:26.116Z,15.20
2023-03-02T05:59:52.666Z,16.27
2023-03-02T06:02:19.244Z,16.25
2023-03-02T06:04:45.794Z,14.23
2023-03-02T06:07:12.929Z,15.38
2023-03-02T06:09:40.109Z,14.50
2023-03-02T06:12:07.423Z,14.15
2023-03-02T06:14:34.435Z,14.18
2023-03-02T06:17:01.019Z,14.32
2023-03-02T06:19:27.704Z,15.15
2023-03-02T06:21:54.380Z,14.27
2023-03-02T06:24:21.158Z,15.02
2023-03-02T06:26:47.862Z,15.10
2023-03-02T06:29:14.373Z,16.30
2023-03-02T06:31:40.996Z,13.55
2023-03-02T06:34:07.493Z,13.40
2023-03-02T06:36:34.251Z,14.07
2023-03-02T06:39:01.032Z,14.38
2023-03-02T06:41:27.669Z,13.95
2023-03-02T06:43:54.130Z,12.82
2023-03-02T06:46:20.664Z,13.88
2023-03-02T06:48:47.276Z,11.98
2023-03-02T06:51:14.343Z,12.32
2023-03-02T06:53:41.058Z,11.02
2023-03-02T06:56:07.683Z,11.32
2023-03-02T06:58:34.720Z,12.65
2023-03-02T07:01:01.307Z,10.90
2023-03-02T07:03:27.865Z,11.93
2023-03-02T07:05:54.419Z,10.60
2023-03-02T07:08:20.867Z,12.82
2023-03-02T07:10:47.416Z,13.40
2023-03-02T07:13:13.896Z,13.07
2023-03-02T07:15:40.574Z,9.87
2023-03-02T07:18:07.468Z,11.23
2023-03-02T07:20:34.536Z,10.90
2023-03-02T07:23:01.075Z,11.20
2023-03-02T07:25:27.622Z,11.20
2023-03-02T07:27:54.161Z,14.50
2023-03-02T07:30:21.314Z,11.10
2023-03-02T07:32:48.196Z,12.70
2023-03-02T07:35:14.843Z,13.53
2023-03-02T07:37:41.349Z,14.07
2023-03-02T07:40:08.257Z,14.27
2023-03-02T07:42:34.767Z,13.63
2023-03-02T07:45:04.412Z,10.77
2023-03-02T07:47:31.195Z,12.97
2023-03-02T07:49:58.109Z,13.00
2023-03-02T07:52:24.883Z,13.20
2023-03-02T07:54:51.703Z,12.80
2023-03-02T07:57:18.251Z,12.40
2023-03-02T07:59:44.916Z,12.23
2023-03-02T08:02:15.602Z,11.80
2023-03-02T08:04:42.514Z,14.40
2023-03-02T08:07:09.451Z,12.70
2023-03-02T08:09:37.621Z,13.93
2023-03-02T08:12:04.867Z,12.23
2023-03-02T08:14:31.526Z,12.90
2023-03-02T08:16:58.112Z,12.10
2023-03-02T08:19:26.291Z,13.40
2023-03-02T08:21:52.804Z,12.30
2023-03-02T08:24:19.329Z,11.77
2023-03-02T08:26:45.828Z,12.80
2023-03-02T08:29:12.470Z,10.63
2023-03-02T08:31:39.054Z,12.77
2023-03-02T08:34:05.899Z,11.83
2023-03-02T08:36:32.698Z,12.57
2023-03-02T08:38:59.495Z,12.83
2023-03-02T08:41:26.312Z,12.20
2023-03-02T08:43:55.864Z,11.47
2023-03-02T08:46:22.517Z,11.03
2023-03-02T08:48:51.327Z,12.60
2023-03-02T08:51:19.597Z,11.67
2023-03-02T08:53:47.470Z,13.80
2023-03-02T08:56:18.189Z,12.77
2023-03-02T08:58:44.765Z,12.30
2023-03-02T09:01:18.277Z,11.87
2023-03-02T09:03:44.905Z,12.67
2023-03-02T09:06:11.756Z,12.87
2023-03-02T09:08:38.681Z,11.97
2023-03-02T09:11:05.653Z,12.17
2023-03-02T09:13:32.638Z,13.20
2023-03-02T09:15:59.251Z,13.17
2023-03-02T09:18:25.716Z,12.67
2023-03-02T09:20:52.809Z,12.23
2023-03-02T09:23:20.419Z,13.00
2023-03-02T09:25:49.989Z,11.83
2023-03-02T09:28:16.807Z,12.43
2023-03-02T09:30:48.104Z,14.13
2023-03-02T09:33:14.755Z,12.47
2023-03-02T09:35:41.296Z,14.03
2023-03-02T09:38:07.902Z,12.23
2023-03-02T09:40:35.530Z,14.50
2023-03-02T09:43:15.537Z,11.20
2023-03-02T09:45:53.405Z,13.30
2023-03-02T09:48:44.463Z,13.57
2023-03-02T09:51:20.743Z,13.43
2023-03-02T09:53:53.044Z,12.07
2023-03-02T09:56:20.128Z,12.93
2023-03-02T09:58:58.968Z,12.50
2023-03-02T10:01:30.241Z,14.10
2023-03-02T10:04:12.399Z,13.23
2023-03-02T10:06:39.038Z,12.10
2023-03-02T10:09:05.566Z,12.93
2023-03-02T10:11:44.516Z,12.93
2023-03-02T10:14:34.459Z,12.03
2023-03-02T10:17:00.949Z,13.27
2023-03-02T10:19:42.132Z,13.27
2023-03-02T10:22:11.791Z,12.53
2023-03-02T10:24:40.420Z,14.30
2023-03-02T10:27:18.202Z,11.97
2023-03-02T10:29:49.345Z,12.80
2023-03-02T10:32:24.180Z,11.97
2023-03-02T10:34:51.765Z,13.30
2023-03-02T10:37:24.977Z,11.40
2023-03-02T10:39:52.571Z,12.00
2023-03-02T10:42:36.963Z,11.53
2023-03-02T10:45:29.847Z,11.77
2023-03-02T10:48:00.117Z,12.10
2023-03-02T10:50:26.635Z,12.70
2023-03-02T10:53:02.051Z,12.03
2023-03-02T10:55:29.453Z,13.00
2023-03-02T10:58:04.479Z,12.47
2023-03-02T11:00:31.759Z,11.90
2023-03-02T11:03:00.132Z,13.60
2023-03-02T11:05:32.836Z,11.50
2023-03-02T11:08:00.602Z,12.10
2023-03-02T11:10:30.222Z,12.77
2023-03-02T11:12:56.883Z,12.03
2023-03-02T11:15:29.589Z,13.27
2023-03-02T11:18:07.040Z,14.00
2023-03-02T11:20:38.617Z,13.43
2023-03-02T11:23:32.970Z,12.40
2023-03-02T11:26:06.498Z,12.83
2023-03-02T11:28:36.268Z,13.10
2023-03-02T11:31:05.326Z,13.30
2023-03-02T11:33:37.555Z,14.80
2023-03-02T11:36:24.453Z,11.73
2023-03-02T11:38:53.340Z,13.30
2023-03-02T11:41:29.615Z,12.93
2023-03-02T11:43:58.432Z,12.20
2023-03-02T11:46:34.750Z,12.57
2023-03-02T11:49:04.353Z,12.70
2023-03-02T11:51:37.846Z,12.97
2023-03-02T11:54:11.262Z,12.47
2023-03-02T11:56:39.644Z,13.57
2023-03-02T11:59:11.518Z,11.70
2023-03-02T12:01:40.299Z,12.40
2023-03-02T12:04:27.112Z,11.87
2023-03-02T12:06:53.854Z,12.30
2023-03-02T12:09:23.622Z,13.07
2023-03-02T12:12:00.051Z,11.73
2023-03-02T12:14:28.733Z,12.53
2023-03-02T12:17:24.398Z,11.87
2023-03-02T12:19:52.547Z,13.13
2023-03-02T12:22:26.969Z,11.43
2023-03-02T12:25:01.378Z,12.50
2023-03-02T12:27:33.667Z,12.70
2023-03-02T12:30:15.745Z,12.20
2023-03-02T12:32:48.372Z,11.70
2023-03-02T12:35:18.182Z,11.40
2023-03-02T12:37:47.773Z,12.53
2023-03-02T12:40:33.443Z,14.10
2023-03-02T12:43:18.012Z,12.00
2023-03-02T12:46:02.576Z,11.60
2023-03-02T12:48:30.874Z,10.60
2023-03-02T12:51:00.403Z,10.80
2023-03-02T12:53:27.450Z,10.27
2023-03-02T12:55:53.990Z,12.10
2023-03-02T12:58:22.585Z,10.57
2023-03-02T13:00:58.482Z,12.17
2023-03-02T13:03:26.423Z,11.73
2023-03-02T13:06:00.409Z,11.63
2023-03-02T13:08:28.716Z,11.43
2023-03-02T13:10:56.841Z,10.70
2023-03-02T13:13:43.228Z,9.13
2023-03-02T13:16:23.829Z,11.17
2023-03-02T13:18:55.340Z,11.67
2023-03-02T13:21:22.449Z,10.67
2023-03-02T13:23:50.222Z,10.93
2023-03-02T13:26:25.764Z,11.63
2023-03-02T13:29:19.276Z,10.70
2023-03-02T13:31:46.114Z,11.43
2023-03-02T13:34:23.247Z,11.20
2023-03-02T13:36:50.043Z,10.83
2023-03-02T13:39:20.765Z,9.80
2023-03-02T13:41:55.118Z,10.87
2023-03-02T13:44:27.292Z,10.90
2023-03-02T13:46:53.919Z,10.63
2023-03-02T13:49:30.843Z,11.60
2023-03-02T13:52:07.764Z,11.33
2023-03-02T13:54:35.610Z,11.33
2023-03-02T13:57:03.858Z,11.10
2023-03-02T13:59:32.244Z,11.07
2023-03-02T14:01:59.113Z,9.87
2023-03-02T14:04:25.878Z,10.67
2023-03-02T14:06:53.685Z,9.90
2023-03-02T14:09:20.664Z,10.30
2023-03-02T14:11:49.029Z,9.87
2023-03-02T14:14:20.499Z,10.90
2023-03-02T14:16:47.010Z,9.67
2023-03-02T14:19:16.202Z,11.10
2023-03-02T14:21:43.447Z,10.67
2023-03-02T14:24:10.217Z,9.60
2023-03-02T14:26:40.821Z,10.00
2023-03-02T14:29:13.655Z,11.27
2023-03-02T14:31:40.208Z,10.20
2023-03-02T14:34:09.397Z,10.17
2023-03-02T14:36:36.075Z,8.83
2023-03-02T14:39:04.238Z,8.17
2023-03-02T14:41:34.419Z,10.63
2023-03-02T14:44:04.965Z,9.30
2023-03-02T14:46:31.605Z,9.17
2023-03-02T14:48:58.195Z,9.90
2023-03-02T14:51:26.732Z,9.80
2023-03-02T14:53:55.332Z,8.37
2023-03-02T14:56:22.913Z,10.30
2023-03-02T14:58:50.245Z,9.00
2023-03-02T15:01:17.034Z,8.67
2023-03-02T15:03:43.712Z,9.03
2023-03-02T15:06:25.470Z,9.50
2023-03-02T15:08:52.132Z,8.43
2023-03-02T15:11:18.673Z,8.50
2023-03-02T15:13:45.844Z,9.17
2023-03-02T15:16:12.500Z,9.83
2023-03-02T15:18:38.999Z,11.40
2023-03-02T15:21:05.998Z,9.33
2023-03-02T15:23:33.002Z,9.10
2023-03-02T15:26:00.293Z,8.97
2023-03-02T15:28:27.050Z,9.83
2023-03-02T15:30:53.736Z,9.40
2023-03-02T15:33:20.686Z,9.00
2023-03-02T15:35:50.983Z,9.20
2023-03-02T15:38:17.959Z,8.63
2023-03-02T15:40:45.521Z,9.90
2023-03-02T15:43:12.100Z,11.10
2023-03-02T15:45:43.736Z,11.27
2023-03-02T15:48:12.598Z,9.53
2023-03-02T15:50:40.127Z,9.90
2023-03-02T15:53:07.054Z,9.80
2023-03-02T15:55:33.610Z,10.37
2023-03-02T15:58:00.178Z,10.20
2023-03-02T16:00:26.792Z,10.87
2023-03-02T16:02:53.349Z,10.10
2023-03-02T16:05:19.936Z,9.33
2023-03-02T16:07:46.552Z,9.53
2023-03-02T16:10:16.376Z,9.30
2023-03-02T16:12:43.500Z,9.30
2023-03-02T16:15:10.340Z,10.57
2023-03-02T16:17:36.952Z,8.13
2023-03-02T16:20:03.817Z,9.47
2023-03-02T16:22:30.358Z,8.40
2023-03-02T16:24:57.170Z,10.33
2023-03-02T16:27:23.789Z,10.20
2023-03-02T16:29:50.495Z,10.17
2023-03-02T16:32:17.131Z,8.97
2023-03-02T16:34:43.748Z,10.47
2023-03-02T16:37:10.496Z,9.37
2023-03-02T16:39:37.214Z,11.27
2023-03-02T16:42:04.307Z,11.53
2023-03-02T16:44:30.953Z,11.40
2023-03-02T16:46:57.759Z,11.10
2023-03-02T16:49:24.412Z,11.57
2023-03-02T16:51:55.793Z,11.20
2023-03-02T16:54:22.366Z,12.67
2023-03-02T16:56:49.160Z,11.67
2023-03-02T16:59:16.081Z,10.50
2023-03-02T17:01:43.079Z,12.73
2023-03-02T17:04:09.760Z,10.90
2023-03-02T17:06:36.331Z,11.13
2023-03-02T17:09:03.173Z,11.57
2023-03-02T17:11:31.437Z,11.30
2023-03-02T17:13:58.072Z,11.37
2023-03-02T17:16:24.963Z,12.00
2023-03-02T17:18:51.532Z,12.00
2023-03-02T17:21:18.202Z,13.40
2023-03-02T17:23:47.944Z,12.50
2023-03-02T17:26:15.161Z,10.23
2023-03-02T17:28:41.693Z,11.70
2023-03-02T17:31:08.426Z,11.90
2023-03-02T17:33:35.155Z,10.83
2023-03-02T17:36:07.598Z,12.00
2023-03-02T17:38:34.091Z,11.53
2023-03-02T17:41:01.572Z,11.70
2023-03-02T17:43:30.338Z,11.70
2023-03-02T17:45:57.548Z,11.67
2023-03-02T17:48:25.767Z,10.90
2023-03-02T17:50:52.439Z,11.63
2023-03-02T17:53:19.049Z,10.87
2023-03-02T17:55:45.651Z,12.80
2023-03-02T17:58:12.311Z,13.50
2023-03-02T18:00:40.531Z,14.27
2023-03-02T18:03:07.189Z,12.17
2023-03-02T18:05:33.686Z,13.70
2023-03-02T18:08:00.255Z,13.10
2023-03-02T18:10:26.831Z,12.67
2023-03-02T18:12:54.522Z,14.13
2023-03-02T18:15:21.267Z,14.03
2023-03-02T18:17:47.888Z,12.90
2023-03-02T18:20:14.446Z,15.43
2023-03-02T18:22:41.171Z,14.23
2023-03-02T18:25:08.291Z,13.97
2023-03-02T18:27:34.929Z,15.30
2023-03-02T18:30:01.684Z,14.37
2023-03-02T18:32:28.448Z,15.30
2023-03-02T18:34:55.013Z,15.57
2023-03-02T18:37:21.509Z,15.57
2023-03-02T18:39:48.174Z,15.67
2023-03-02T18:42:14.777Z,15.43
2023-03-02T18:44:41.361Z,14.03
2023-03-02T18:47:08.725Z,15.47
2023-03-02T18:49:35.565Z,14.43
2023-03-02T18:52:05.688Z,15.53
2023-03-02T18:54:32.754Z,16.10
2023-03-02T18:57:01.176Z,17.40
2023-03-02T18:59:28.564Z,17.10
2023-03-02T19:01:55.606Z,15.77
2023-03-02T19:04:26.625Z,15.80
2023-03-02T19:06:55.612Z,15.27
2023-03-02T19:09:22.632Z,18.43
2023-03-02T19:11:49.229Z,16.47
2023-03-02T19:14:15.860Z,17.17
2023-03-02T19:16:42.494Z,16.73
2023-03-02T19:19:09.381Z,19.10
2023-03-02T19:21:35.998Z,16.90
2023-03-02T19:24:03.002Z,18.17
2023-03-02T19:26:29.913Z,16.70
2023-03-02T19:28:56.623Z,20.43
2023-03-02T19:31:24.158Z,17.37
2023-03-02T19:33:50.753Z,18.90
2023-03-02T19:36:17.524Z,19.27
2023-03-02T19:38:44.559Z,17.83
2023-03-02T19:41:13.137Z,17.60
2023-03-02T19:43:41.807Z,19.50
2023-03-02T19:46:10.809Z,20.17
2023-03-02T19:48:37.938Z,21.70
2023-03-02T19:51:05.544Z,19.53
2023-03-02T19:53:32.772Z,21.20
2023-03-02T19:56:03.653Z,22.50
2023-03-02T19:58:32.241Z,23.93
2023-03-02T20:00:58.970Z,23.53
2023-03-02T20:03:25.592Z,23.23
2023-03-02T20:05:54.092Z,25.10
2023-03-02T20:08:22.790Z,22.10
2023-03-02T20:10:49.946Z,24.53
2023-03-02T20:13:17.603Z,23.43
2023-03-02T20:15:45.645Z,24.80
2023-03-02T20:18:14.717Z,23.87
2023-03-02T20:20:42.744Z,24.53
2023-03-02T20:23:09.386Z,26.50
2023-03-02T20:25:39.029Z,27.43
2023-03-02T20:28:06.880Z,24.10
2023-03-02T20:30:41.808Z,26.37
2023-03-02T20:33:09.562Z,25.17
2023-03-02T20:35:39.866Z,26.13
2023-03-02T20:38:08.276Z,25.80
2023-03-02T20:40:36.170Z,24.67
2023-03-02T20:43:03.018Z,26.10
2023-03-02T20:45:30.215Z,26.07
2023-03-02T20:47:56.859Z,26.90
2023-03-02T20:50:25.931Z,28.20
2023-03-02T20:52:52.535Z,30.47
2023-03-02T20:55:19.174Z,27.42
2023-03-02T20:57:46.084Z,29.80
2023-03-02T21:00:15.495Z,31.43
2023-03-02T21:02:42.569Z,29.30
2023-03-02T21:05:09.695Z,31.20
2023-03-02T21:07:36.366Z,29.63
2023-03-02T21:10:04.122Z,28.48
2023-03-02T21:12:30.935Z,34.25
2023-03-02T21:14:57.620Z,32.15
2023-03-02T21:17:25.530Z,32.22
2023-03-02T21:19:52.187Z,32.00
2023-03-02T21:22:20.648Z,30.90
2023-03-02T21:24:47.205Z,30.83
2023-03-02T21:27:13.833Z,34.17
2023-03-02T21:29:40.404Z,34.22
2023-03-02T21:32:08.033Z,35.45
2023-03-02T21:34:37.868Z,35.20
2023-03-02T21:37:04.939Z,34.90
2023-03-02T21:39:31.529Z,37.47
2023-03-02T21:41:58.118Z,36.67
2023-03-02T21:44:24.822Z,37.53
2023-03-02T21:46:51.477Z,35.40
2023-03-02T21:49:19.318Z,38.38
2023-03-02T21:51:47.521Z,34.30
2023-03-02T21:54:15.216Z,34.20
2023-03-02T21:56:43.456Z,32.78
2023-03-02T21:59:10.543Z,34.58
2023-03-02T22:01:37.152Z,36.28
2023-03-02T22:04:03.968Z,37.42
2023-03-02T22:06:31.486Z,37.92
2023-03-02T22:08:58.289Z,37.85
2023-03-02T22:11:26.440Z,36.58
2023-03-02T22:13:55.235Z,37.97
2023-03-02T22:16:23.103Z,38.67
2023-03-02T22:18:53.201Z,42.38
2023-03-02T22:21:19.716Z,40.47
2023-03-02T22:23:46.227Z,39.70
2023-03-02T22:26:14.964Z,37.53
2023-03-02T22:28:41.767Z,38.95
2023-03-02T22:31:13.585Z,46.22
2023-03-02T22:33:41.167Z,42.63
2023-03-02T22:36:16.151Z,47.00
2023-03-02T22:38:42.742Z,47.83
2023-03-02T22:41:13.572Z,45.78
2023-03-02T22:43:40.094Z,48.50
2023-03-02T22:46:17.103Z,48.63
2023-03-02T22:48:44.938Z,49.15
2023-03-02T22:51:22.297Z,44.70
2023-03-02T22:53:56.312Z,48.30
2023-03-02T22:56:30.227Z,48.42
2023-03-02T22:59:00.744Z,48.97
2023-03-02T23:01:27.274Z,47.20
2023-03-02T23:03:57.226Z,46.42
2023-03-02T23:06:33.749Z,55.65
2023-03-02T23:09:01.839Z,48.42
2023-03-02T23:11:29.267Z,54.92
2023-03-02T23:13:56.062Z,52.50
2023-03-02T23:16:24.365Z,53.53
2023-03-02T23:18:51.860Z,57.60
2023-03-02T23:21:20.155Z,58.55
2023-03-02T23:23:47.332Z,54.83
2023-03-02T23:26:13.912Z,58.65
2023-03-02T23:28:40.558Z,57.28
2023-03-02T23:31:07.061Z,59.55
2023-03-02T23:33:33.604Z,59.17
2023-03-02T23:36:00.789Z,58.40
2023-03-02T23:38:27.457Z,58.28
2023-03-02T23:40:54.549Z,60.72
2023-03-02T23:43:21.041Z,60.33
2023-03-02T23:45:47.562Z,63.58
2023-03-02T23:48:14.217Z,62.65
2023-03-02T23:50:41.917Z,60.08
2023-03-02T23:53:08.667Z,61.65
2023-03-02T23:55:35.823Z,63.55
2023-03-02T23:58:02.314Z,57.65
